Time;durP1;ratioP1;P1;durP2;ratioP2;P2;SDS_P1;SDS_P2;PMS_P1;PMS_P2;Temp;Humidity;BMP_temperature;BMP_pressure;BME280_temperature;BME280_humidity;BME280_pressure;Samples;Min_cycle;Max_cycle;Signal;HPM_P1;HPM_P2
2022/11/28 00:00:12;;;;;;;12.57;8.98;;;;;;;4.56;83.96;98775.03;5023746;28;20021;-81
2022/11/28 00:02:41;;;;;;;14.00;9.90;;;;;;;4.35;83.62;98765.56;5001414;28;20171;-81
2022/11/28 00:05:09;;;;;;;15.02;9.50;;;;;;;4.41;83.64;98771.84;5025392;28;20029;-80
2022/11/28 00:07:35;;;;;;;14.70;10.10;;;;;;;3.98;85.16;98773.44;5025243;28;20496;-80
2022/11/28 00:10:00;;;;;;;15.32;9.57;;;;;;;4.22;83.22;98776.19;5026913;28;20053;-81
2022/11/28 00:12:27;;;;;;;14.95;8.85;;;;;;;4.06;84.22;98768.75;5020677;28;20051;-81
2022/11/28 00:14:53;;;;;;;15.60;10.98;;;;;;;3.91;83.67;98749.69;4998373;28;20087;-81
2022/11/28 00:17:19;;;;;;;15.45;9.98;;;;;;;3.70;83.93;98771.88;5019046;28;20029;-81
2022/11/28 00:19:44;;;;;;;13.00;8.68;;;;;;;4.32;84.67;98757.25;4995687;28;20523;-80
2022/11/28 00:22:10;;;;;;;13.95;8.65;;;;;;;4.47;84.13;98742.75;5007020;28;20033;-81
2022/11/28 00:24:35;;;;;;;11.77;8.07;;;;;;;4.57;83.56;98753.66;5023260;28;20025;-81
2022/11/28 00:27:01;;;;;;;14.80;9.00;;;;;;;4.66;83.45;98763.97;5008138;28;20389;-81
2022/11/28 00:29:26;;;;;;;14.65;9.20;;;;;;;4.63;83.01;98754.63;5006255;28;20139;-81
2022/11/28 00:31:51;;;;;;;13.88;8.85;;;;;;;4.73;82.49;98760.28;5027274;28;20022;-81
2022/11/28 00:34:17;;;;;;;13.52;8.80;;;;;;;4.59;82.52;98729.66;5004600;28;20037;-81
2022/11/28 00:36:44;;;;;;;12.98;8.45;;;;;;;4.70;82.62;98751.94;4997637;28;20134;-81
2022/11/28 00:39:10;;;;;;;12.50;8.68;;;;;;;4.66;82.62;98756.88;5010217;28;20041;-81
2022/11/28 00:41:36;;;;;;;17.70;8.73;;;;;;;4.72;82.69;98765.78;5021991;28;20049;-81
2022/11/28 00:44:01;;;;;;;13.20;9.27;;;;;;;4.83;81.77;98765.09;5024082;28;20120;-81
2022/11/28 00:46:27;;;;;;;13.32;8.95;;;;;;;4.59;81.69;98726.22;5022906;28;20333;-81
2022/11/28 00:48:53;;;;;;;13.20;8.55;;;;;;;4.42;82.18;98752.31;5028683;28;20035;-81
2022/11/28 00:51:24;;;;;;;16.27;9.90;;;;;;;3.98;84.77;98744.38;5023168;28;20033;-81
2022/11/28 00:53:52;;;;;;;15.55;10.05;;;;;;;4.04;84.38;98752.28;5017735;28;20034;-80
2022/11/28 00:56:20;;;;;;;17.55;10.90;;;;;;;4.10;84.12;98748.81;5022832;28;20037;-81
2022/11/28 00:58:49;;;;;;;14.48;9.38;;;;;;;3.89;84.19;98727.19;5020987;28;20120;-81
2022/11/28 01:01:18;;;;;;;12.23;8.93;;;;;;;4.08;84.82;98745.59;5027150;28;20040;-81
2022/11/28 01:03:44;;;;;;;14.70;10.27;;;;;;;4.12;83.73;98749.44;5022794;28;20179;-81
2022/11/28 01:06:11;;;;;;;15.50;9.77;;;;;;;4.01;82.45;98730.78;5022018;28;20037;-81
2022/11/28 01:08:37;;;;;;;16.00;9.88;;;;;;;4.16;83.91;98724.22;4996732;28;21312;-81
2022/11/28 01:11:03;;;;;;;18.58;9.80;;;;;;;3.43;82.84;98712.25;5022881;28;20052;-81
2022/11/28 01:13:29;;;;;;;16.20;9.65;;;;;;;3.15;84.42;98692.41;5025099;28;20029;-81
2022/11/28 01:15:54;;;;;;;16.85;9.93;;;;;;;3.63;85.52;98709.56;4994053;28;20622;-81
2022/11/28 01:18:20;;;;;;;18.95;10.98;;;;;;;3.84;84.85;98727.81;4990369;28;20735;-81
2022/11/28 01:20:45;;;;;;;16.02;9.15;;;;;;;4.18;83.19;98732.72;5011677;28;20250;-81
2022/11/28 01:23:10;;;;;;;18.33;8.98;;;;;;;4.36;84.48;98730.22;5011466;28;20037;-80
2022/11/28 01:25:36;;;;;;;15.18;9.85;;;;;;;3.73;82.80;98696.78;5010135;28;20044;-81
2022/11/28 01:28:01;;;;;;;17.38;10.55;;;;;;;3.76;84.32;98698.97;5010309;28;20916;-81
2022/11/28 01:30:27;;;;;;;18.08;10.60;;;;;;;3.60;85.05;98715.28;4994682;28;20033;-81
2022/11/28 01:32:52;;;;;;;17.15;9.95;;;;;;;4.07;85.18;98720.19;5013655;28;20065;-81
2022/11/28 01:35:18;;;;;;;13.35;8.90;;;;;;;4.30;84.76;98715.19;5022393;28;20053;-81
2022/11/28 01:37:43;;;;;;;17.15;9.52;;;;;;;4.12;85.21;98712.44;5021515;28;20035;-81
2022/11/28 01:40:10;;;;;;;16.92;10.80;;;;;;;4.16;85.46;98678.50;5021121;28;20046;-81
2022/11/28 01:42:36;;;;;;;15.48;10.07;;;;;;;4.23;84.54;98698.59;5019435;28;20037;-81
2022/11/28 01:45:33;;;;;;;21.75;10.52;;;;;;;4.13;84.24;98684.22;5016714;28;20033;-81
2022/11/28 01:48:01;;;;;;;19.00;11.27;;;;;;;3.90;83.95;98686.53;5021110;28;20037;-81
2022/11/28 01:50:30;;;;;;;15.30;9.85;;;;;;;4.19;85.48;98692.09;5020276;28;20553;-81
2022/11/28 01:53:00;;;;;;;13.75;8.57;;;;;;;4.24;85.07;98692.25;5025875;28;20041;-81
2022/11/28 01:55:30;;;;;;;17.30;10.43;;;;;;;3.75;86.62;98697.38;5004568;28;20028;-81
2022/11/28 01:57:56;;;;;;;14.00;8.90;;;;;;;4.19;86.00;98693.94;5026463;28;20432;-81
2022/11/28 02:00:22;;;;;;;20.70;11.23;;;;;;;4.00;84.13;98658.66;5020302;28;20393;-81
2022/11/28 02:03:01;;;;;;;18.48;11.82;;;;;;;3.67;83.51;98664.09;5023852;28;20041;-81
2022/11/28 02:05:26;;;;;;;15.48;10.20;;;;;;;3.84;85.51;98647.78;5016066;28;20512;-81
2022/11/28 02:07:52;;;;;;;19.63;12.10;;;;;;;4.01;84.59;98660.31;5010008;28;20033;-81
2022/11/28 02:10:41;;;;;;;18.83;11.77;;;;;;;3.56;83.82;98633.06;5011009;28;20432;-81
2022/11/28 02:13:33;;;;;;;18.25;11.20;;;;;;;3.85;85.12;98631.72;4998645;28;20041;-81
2022/11/28 02:16:07;;;;;;;19.88;12.60;;;;;;;3.80;83.92;98644.75;5003396;28;20025;-81
2022/11/28 02:18:48;;;;;;;18.77;10.32;;;;;;;4.21;84.88;98646.97;5004568;28;20037;-81
2022/11/28 02:21:34;;;;;;;18.13;10.07;;;;;;;3.83;85.00;98631.13;5010890;28;20022;-81
2022/11/28 02:24:11;;;;;;;23.48;13.32;;;;;;;3.73;83.92;98647.41;5009394;28;20044;-81
2022/11/28 02:26:42;;;;;;;18.60;11.88;;;;;;;3.60;84.96;98623.72;5010432;28;20037;-81
2022/11/28 02:29:40;;;;;;;18.95;10.98;;;;;;;3.89;84.47;98642.69;5023124;28;20032;-81
2022/11/28 02:32:12;;;;;;;17.23;10.80;;;;;;;3.85;84.30;98637.00;5020836;28;20026;-81
2022/11/28 02:34:37;;;;;;;19.88;11.23;;;;;;;3.53;84.79;98632.69;5012620;28;20040;-81
2022/11/28 02:37:11;;;;;;;19.65;12.55;;;;;;;3.66;84.79;98622.09;5012959;28;20489;-80
2022/11/28 02:39:59;;;;;;;19.85;11.40;;;;;;;3.96;85.30;98639.00;5009705;28;20693;-81
2022/11/28 02:42:57;;;;;;;20.15;11.50;;;;;;;3.94;85.48;98616.47;5010389;28;20057;-81
2022/11/28 02:45:45;;;;;;;21.58;11.93;;;;;;;3.97;84.29;98624.78;5005041;28;20033;-81
2022/11/28 02:48:30;;;;;;;19.98;11.27;;;;;;;4.08;84.08;98620.66;5008020;28;21009;-82
2022/11/28 02:51:10;;;;;;;16.38;10.13;;;;;;;3.82;85.10;98613.69;5012166;28;20040;-81
2022/11/28 02:53:36;;;;;;;19.13;10.73;;;;;;;4.05;84.69;98626.34;5022071;28;20029;-81
2022/11/28 02:56:02;;;;;;;18.13;10.65;;;;;;;3.93;84.94;98612.22;5024963;28;20059;-81
2022/11/28 02:58:27;;;;;;;17.60;10.40;;;;;;;4.07;84.56;98614.56;5024805;28;20041;-81
2022/11/28 03:00:54;;;;;;;20.27;10.90;;;;;;;3.97;83.79;98614.22;5013404;28;20394;-81
2022/11/28 03:03:34;;;;;;;14.75;9.50;;;;;;;4.30;84.52;98609.50;5024183;28;20506;-81
2022/11/28 03:06:20;;;;;;;16.13;9.88;;;;;;;3.90;83.71;98588.88;5021208;28;20490;-81
2022/11/28 03:09:08;;;;;;;19.08;10.45;;;;;;;4.11;83.64;98613.09;5018862;28;20021;-81
2022/11/28 03:11:55;;;;;;;18.55;11.65;;;;;;;4.26;83.34;98618.91;5023205;28;20556;-81
2022/11/28 03:14:34;;;;;;;13.80;9.43;;;;;;;4.46;83.48;98614.28;5015854;28;20381;-81
2022/11/28 03:17:20;;;;;;;16.45;10.35;;;;;;;4.47;82.94;98600.06;5020399;28;20183;-81
2022/11/28 03:20:06;;;;;;;20.30;11.20;;;;;;;4.20;83.42;98592.53;5023421;28;20108;-81
2022/11/28 03:22:39;;;;;;;18.75;10.98;;;;;;;4.31;83.34;98605.88;5022528;28;20057;-81
2022/11/28 03:25:24;;;;;;;16.85;10.55;;;;;;;4.54;82.50;98606.06;5018459;28;20032;-81
2022/11/28 03:28:17;;;;;;;18.90;11.60;;;;;;;4.56;82.36;98611.97;5014843;28;20409;-81
2022/11/28 03:30:51;;;;;;;15.50;9.88;;;;;;;4.42;82.85;98605.19;5024345;28;20047;-81
2022/11/28 03:33:21;;;;;;;16.48;9.43;;;;;;;4.35;82.51;98571.88;5022795;28;20092;-81
2022/11/28 03:35:53;;;;;;;19.70;11.10;;;;;;;4.57;82.56;98605.66;5027949;28;20035;-81
2022/11/28 03:38:27;;;;;;;19.75;10.57;;;;;;;4.46;82.20;98579.94;5024304;28;20043;-81
2022/11/28 03:40:57;;;;;;;14.88;10.00;;;;;;;4.43;81.92;98590.91;5023210;28;20519;-81
2022/11/28 03:43:29;;;;;;;14.65;10.00;;;;;;;4.41;82.93;98563.13;5022348;28;20037;-81
2022/11/28 03:45:59;;;;;;;18.65;10.10;;;;;;;4.42;81.98;98570.00;5029019;28;20099;-81
2022/11/28 03:48:33;;;;;;;18.02;10.50;;;;;;;4.57;81.68;98568.66;5017110;28;20022;-81
2022/11/28 03:51:12;;;;;;;22.75;11.07;;;;;;;4.54;81.72;98584.94;5028363;28;20032;-81
2022/11/28 03:54:10;;;;;;;17.30;9.77;;;;;;;4.39;82.44;98560.69;5028594;28;20573;-81
2022/11/28 03:56:48;;;;;;;16.92;10.70;;;;;;;4.14;81.79;98543.22;5021416;28;20076;-81
2022/11/28 03:59:20;;;;;;;18.15;10.70;;;;;;;4.28;82.36;98573.78;5018139;28;20057;-81
2022/11/28 04:01:52;;;;;;;16.27;11.13;;;;;;;4.38;82.21;98545.88;5012297;28;20122;-82
2022/11/28 04:04:30;;;;;;;21.70;11.23;;;;;;;4.43;82.84;98569.00;5010651;28;20029;-81
2022/11/28 04:07:11;;;;;;;19.42;10.40;;;;;;;4.34;83.02;98573.75;5021071;28;20061;-81
2022/11/28 04:09:36;;;;;;;19.80;10.70;;;;;;;4.40;82.48;98562.31;5022840;28;20048;-81
2022/11/28 04:12:09;;;;;;;17.65;10.23;;;;;;;4.56;81.94;98572.31;5010497;28;20030;-81
2022/11/28 04:14:48;;;;;;;17.50;10.00;;;;;;;4.59;81.69;98568.44;4995813;28;20063;-81
2022/11/28 04:17:38;;;;;;;19.23;11.10;;;;;;;4.40;81.97;98548.28;5009020;28;20504;-81
2022/11/28 04:20:28;;;;;;;17.52;11.23;;;;;;;4.06;82.06;98530.28;5010992;28;20116;-81
2022/11/28 04:22:59;;;;;;;19.63;12.00;;;;;;;3.68;82.36;98533.78;5016264;28;20163;-81
2022/11/28 04:25:27;;;;;;;18.58;10.45;;;;;;;3.76;84.34;98532.69;5010127;28;20653;-81
2022/11/28 04:27:59;;;;;;;22.77;12.80;;;;;;;3.91;83.97;98546.41;5019632;28;20040;-81
2022/11/28 04:30:24;;;;;;;24.63;12.98;;;;;;;3.68;82.81;98519.75;5024740;28;20033;-81
2022/11/28 04:32:56;;;;;;;21.15;10.07;;;;;;;4.32;83.04;98540.63;5012674;28;20040;-81
2022/11/28 04:35:28;;;;;;;19.58;11.38;;;;;;;3.97;81.96;98539.47;5014570;28;20029;-81
2022/11/28 04:37:56;;;;;;;21.00;11.95;;;;;;;3.89;83.11;98535.25;5013445;28;20033;-81
2022/11/28 04:40:22;;;;;;;19.83;11.32;;;;;;;3.97;82.82;98535.00;5013857;28;20057;-81
2022/11/28 04:42:56;;;;;;;14.48;9.27;;;;;;;4.11;84.25;98520.66;5008477;28;20033;-81
2022/11/28 04:45:32;;;;;;;18.30;10.73;;;;;;;3.69;83.15;98518.75;5003533;28;20034;-81
2022/11/28 04:47:58;;;;;;;22.23;11.52;;;;;;;3.99;84.14;98514.47;5014569;28;20072;-82
2022/11/28 04:50:30;;;;;;;19.15;10.48;;;;;;;3.87;82.91;98492.41;4993735;28;20037;-81
2022/11/28 04:53:09;;;;;;;19.40;11.52;;;;;;;4.18;82.80;98518.78;5004326;28;20034;-82
2022/11/28 04:56:00;;;;;;;17.38;10.32;;;;;;;4.14;82.95;98500.94;5034154;28;20601;-82
2022/11/28 04:58:34;;;;;;;23.20;10.82;;;;;;;4.09;82.89;98506.88;5023932;28;20485;-81
2022/11/28 05:01:03;;;;;;;19.05;10.00;;;;;;;4.30;82.79;98493.28;5020372;28;20040;-81
2022/11/28 05:03:30;;;;;;;19.70;11.35;;;;;;;3.90;82.90;98478.81;5024037;28;20037;-81
2022/11/28 05:05:55;;;;;;;19.23;10.57;;;;;;;4.23;83.25;98497.84;5020880;28;20059;-81
2022/11/28 05:08:21;;;;;;;15.95;9.35;;;;;;;4.14;82.98;98478.00;5017238;28;20163;-82
2022/11/28 05:10:46;;;;;;;17.17;10.32;;;;;;;4.36;83.17;98489.78;5023169;28;20053;-81
2022/11/28 05:13:12;;;;;;;18.95;10.40;;;;;;;4.33;82.71;98506.06;5026051;28;20032;-81
2022/11/28 05:15:38;;;;;;;18.67;10.40;;;;;;;4.15;82.11;98476.97;5027528;28;20494;-81
2022/11/28 05:18:04;;;;;;;14.68;9.18;;;;;;;4.43;82.46;98503.72;5025987;28;20036;-82
2022/11/28 05:20:30;;;;;;;20.02;11.73;;;;;;;3.55;81.94;98480.25;5024443;28;20087;-81
2022/11/28 05:22:55;;;;;;;22.88;11.40;;;;;;;3.98;82.04;98496.19;5022102;28;20026;-81
2022/11/28 05:25:21;;;;;;;14.77;8.70;;;;;;;4.00;83.31;98494.97;5012399;28;20390;-81
2022/11/28 05:27:46;;;;;;;19.30;11.40;;;;;;;3.56;82.26;98479.25;5019450;28;20033;-81
2022/11/28 05:30:13;;;;;;;19.17;12.10;;;;;;;3.42;82.22;98453.97;5003806;28;20045;-81
2022/11/28 05:32:38;;;;;;;15.30;10.02;;;;;;;3.99;83.96;98463.50;5026460;28;20048;-81
2022/11/28 05:35:04;;;;;;;15.18;9.60;;;;;;;3.99;83.53;98479.34;5021876;28;20114;-81
2022/11/28 05:37:29;;;;;;;20.00;9.98;;;;;;;3.78;83.83;98483.97;5019426;28;20099;-81
2022/11/28 05:39:54;;;;;;;12.00;8.30;;;;;;;4.34;83.16;98491.84;5022525;28;20040;-81
2022/11/28 05:42:20;;;;;;;15.68;9.32;;;;;;;4.51;82.73;98495.53;5024028;28;20041;-81
2022/11/28 05:44:46;;;;;;;17.73;10.05;;;;;;;4.56;82.02;98511.53;4990603;28;20029;-81
2022/11/28 05:47:12;;;;;;;14.15;10.10;;;;;;;4.40;82.52;98506.00;5008234;28;20030;-81
2022/11/28 05:49:37;;;;;;;16.95;10.25;;;;;;;4.14;83.23;98491.22;5023489;28;20531;-81
2022/11/28 05:52:03;;;;;;;17.75;11.52;;;;;;;3.57;82.06;98500.13;5018992;28;20022;-81
2022/11/28 05:54:31;;;;;;;17.10;10.27;;;;;;;3.81;84.09;98490.66;5027752;28;20460;-82
2022/11/28 05:56:57;;;;;;;18.73;10.05;;;;;;;3.97;84.56;98513.88;5023753;28;20025;-81
2022/11/28 05:59:22;;;;;;;15.95;10.43;;;;;;;4.12;83.26;98498.53;5027030;28;20033;-81
2022/11/28 06:01:48;;;;;;;19.30;11.75;;;;;;;3.85;82.84;98498.94;5024615;28;20052;-81
2022/11/28 06:04:13;;;;;;;14.32;8.77;;;;;;;4.28;83.15;98490.06;5023539;28;20026;-82
2022/11/28 06:06:38;;;;;;;18.17;9.77;;;;;;;4.44;82.66;98500.06;5024727;28;20389;-82
2022/11/28 06:09:05;;;;;;;15.75;9.43;;;;;;;4.37;83.71;98509.88;5026036;28;20657;-81
2022/11/28 06:11:32;;;;;;;21.38;13.68;;;;;;;4.15;82.88;98494.66;5023131;28;20026;-81
2022/11/28 06:13:57;;;;;;;17.50;10.38;;;;;;;4.18;82.42;98496.84;5020251;28;20488;-81
2022/11/28 06:16:25;;;;;;;21.60;11.40;;;;;;;3.64;84.96;98489.53;5000527;28;20041;-81
2022/11/28 06:18:56;;;;;;;20.52;11.32;;;;;;;3.43;85.05;98480.13;5019531;28;20536;-82
2022/11/28 06:21:22;;;;;;;25.30;12.57;;;;;;;3.29;85.09;98456.69;5019338;28;20033;-80
2022/11/28 06:23:48;;;;;;;21.05;12.25;;;;;;;3.69;85.33;98476.53;5018706;28;20033;-80
2022/11/28 06:26:16;;;;;;;22.38;11.35;;;;;;;3.33;85.51;98457.88;5023466;28;20116;-80
2022/11/28 06:28:42;;;;;;;20.92;10.43;;;;;;;3.74;85.69;98468.75;5015764;28;20030;-79
2022/11/28 06:31:13;;;;;;;17.67;11.40;;;;;;;3.90;83.83;98499.09;5019716;28;20378;-82
2022/11/28 06:33:39;;;;;;;15.82;10.82;;;;;;;3.83;85.11;98500.97;5013932;28;20025;-82
2022/11/28 06:36:06;;;;;;;16.88;10.27;;;;;;;3.78;85.46;98498.97;5006073;28;20099;-80
2022/11/28 06:38:32;;;;;;;25.30;12.85;;;;;;;3.44;84.54;98496.75;5021399;28;20401;-80
2022/11/28 06:40:59;;;;;;;20.70;12.45;;;;;;;3.63;83.91;98493.19;5026386;28;20098;-82
2022/11/28 06:43:24;;;;;;;18.65;10.90;;;;;;;3.85;85.33;98489.19;5007010;28;20437;-80
2022/11/28 06:45:50;;;;;;;16.73;10.98;;;;;;;4.13;84.10;98502.78;4990122;28;20234;-79
2022/11/28 06:48:15;;;;;;;22.95;11.52;;;;;;;3.96;83.89;98500.88;5020176;28;20025;-80
2022/11/28 06:50:41;;;;;;;19.92;11.25;;;;;;;3.61;84.47;98495.25;5023278;28;20079;-82
2022/11/28 06:53:06;;;;;;;18.42;10.45;;;;;;;3.74;84.50;98468.75;5023250;28;20570;-82
2022/11/28 06:55:32;;;;;;;17.67;10.85;;;;;;;4.03;85.27;98485.81;5021998;28;20559;-80
2022/11/28 06:57:57;;;;;;;16.10;9.60;;;;;;;4.24;84.54;98488.88;5022262;28;20521;-79
2022/11/28 07:00:23;;;;;;;18.42;11.55;;;;;;;4.26;82.99;98491.31;5026004;28;20041;-80
2022/11/28 07:02:48;;;;;;;28.55;10.75;;;;;;;3.86;83.74;98485.53;5000744;28;20034;-79
2022/11/28 07:05:15;;;;;;;14.93;10.52;;;;;;;4.10;84.16;98497.13;5001289;28;20405;-79
2022/11/28 07:07:44;;;;;;;16.13;9.63;;;;;;;4.36;83.31;98481.06;5005471;28;20124;-80
2022/11/28 07:10:10;;;;;;;21.17;11.57;;;;;;;4.20;82.81;98498.25;4987168;28;20307;-80
2022/11/28 07:12:35;;;;;;;20.90;11.48;;;;;;;4.09;82.87;98472.56;5019081;28;20033;-80
2022/11/28 07:15:01;;;;;;;57.83;35.28;;;;;;;3.71;82.90;98495.59;5007295;28;20033;-79
2022/11/28 07:17:26;;;;;;;21.42;13.75;;;;;;;3.95;84.88;98478.16;5015398;28;20130;-80
2022/11/28 07:19:51;;;;;;;27.05;15.38;;;;;;;4.27;83.94;98493.72;5011865;28;20036;-80
2022/11/28 07:22:17;;;;;;;21.05;13.10;;;;;;;4.35;83.75;98505.84;5001952;28;20033;-80
2022/11/28 07:24:42;;;;;;;19.92;11.73;;;;;;;4.61;82.31;98515.38;5026117;28;20037;-80
2022/11/28 07:27:08;;;;;;;27.67;17.25;;;;;;;3.93;82.51;98502.16;5022248;28;20084;-80
2022/11/28 07:29:35;;;;;;;21.83;12.35;;;;;;;4.20;83.77;98516.75;5023805;28;20102;-80
2022/11/28 07:32:06;;;;;;;17.45;11.48;;;;;;;4.22;83.37;98501.50;5014606;28;20022;-80
2022/11/28 07:34:32;;;;;;;24.10;12.05;;;;;;;4.05;82.55;98505.69;5022804;28;20022;-79
2022/11/28 07:36:57;;;;;;;18.80;10.77;;;;;;;4.05;84.71;98496.97;5001802;28;20095;-80
2022/11/28 07:39:22;;;;;;;17.77;11.57;;;;;;;3.92;84.36;98474.13;4988577;28;20037;-80
2022/11/28 07:41:49;;;;;;;22.45;16.40;;;;;;;3.68;83.11;98488.09;5008022;28;20124;-80
2022/11/28 07:44:16;;;;;;;26.88;15.52;;;;;;;3.36;85.34;98494.38;5020854;28;20041;-80
2022/11/28 07:46:43;;;;;;;20.88;11.20;;;;;;;3.82;85.96;98509.94;4999383;28;20033;-80
2022/11/28 07:49:08;;;;;;;23.10;12.57;;;;;;;4.07;83.79;98498.38;5023019;28;20030;-80
2022/11/28 07:51:33;;;;;;;19.45;12.32;;;;;;;4.46;82.76;98527.09;5004694;28;20373;-80
2022/11/28 07:54:00;;;;;;;22.13;13.70;;;;;;;4.70;81.92;98521.97;5026552;28;20041;-80
2022/11/28 07:56:28;;;;;;;28.00;19.42;;;;;;;4.40;82.09;98509.47;5025935;28;20044;-80
2022/11/28 07:58:54;;;;;;;22.30;13.45;;;;;;;4.24;83.33;98493.34;5022583;28;20148;-80
2022/11/28 08:01:25;;;;;;;31.42;16.38;;;;;;;4.38;83.10;98513.34;5025111;28;20146;-81
2022/11/28 08:03:52;;;;;;;23.63;13.40;;;;;;;4.08;82.56;98505.28;5020993;28;20323;-80
2022/11/28 08:06:19;;;;;;;30.40;15.55;;;;;;;4.00;82.70;98502.88;5020784;28;20412;-80
2022/11/28 08:08:46;;;;;;;21.88;11.98;;;;;;;4.29;83.68;98512.81;5025761;28;20401;-81
2022/11/28 08:11:12;;;;;;;21.73;12.55;;;;;;;4.46;82.69;98515.69;5020923;28;20040;-81
2022/11/28 08:13:38;;;;;;;19.00;12.40;;;;;;;4.46;82.84;98515.69;5024182;28;20033;-81
2022/11/28 08:16:06;;;;;;;19.67;12.32;;;;;;;4.33;84.31;98513.19;5022835;28;20117;-81
2022/11/28 08:18:33;;;;;;;23.42;13.50;;;;;;;4.29;83.55;98515.47;5019726;28;20041;-81
2022/11/28 08:21:06;;;;;;;22.98;13.48;;;;;;;4.48;82.29;98517.09;5024397;28;20034;-81
2022/11/28 08:23:33;;;;;;;24.73;13.07;;;;;;;4.49;82.84;98517.91;5021877;28;20044;-81
2022/11/28 08:26:03;;;;;;;22.05;12.93;;;;;;;4.40;82.38;98509.47;5020903;28;20515;-81
2022/11/28 08:28:30;;;;;;;22.15;12.77;;;;;;;4.67;81.82;98517.97;5019980;28;20033;-81
2022/11/28 08:30:55;;;;;;;18.50;11.77;;;;;;;4.65;82.12;98520.00;5021717;28;20102;-81
2022/11/28 08:33:23;;;;;;;19.95;12.57;;;;;;;4.76;81.77;98513.97;5024937;28;20045;-81
2022/11/28 08:35:49;;;;;;;22.48;12.00;;;;;;;4.66;81.32;98503.09;5020018;28;20025;-81
2022/11/28 08:38:15;;;;;;;20.40;12.50;;;;;;;4.60;82.17;98508.47;5020505;28;20485;-81
2022/11/28 08:40:40;;;;;;;20.02;11.45;;;;;;;4.56;81.87;98502.81;5024403;28;20040;-81
2022/11/28 08:43:06;;;;;;;24.13;12.85;;;;;;;4.79;81.71;98521.47;5018331;28;20025;-80
2022/11/28 08:45:35;;;;;;;21.52;13.02;;;;;;;4.56;82.10;98497.53;5021250;28;21807;-80
2022/11/28 08:48:00;;;;;;;21.77;13.85;;;;;;;4.27;83.29;98512.22;5020784;28;20025;-80
2022/11/28 08:50:26;;;;;;;19.30;11.27;;;;;;;4.61;83.44;98526.75;5022185;28;20025;-81
2022/11/28 08:52:51;;;;;;;17.48;11.32;;;;;;;4.85;81.61;98511.88;5014361;28;20029;-81
2022/11/28 08:55:16;;;;;;;20.77;11.25;;;;;;;4.84;81.73;98512.91;5023880;28;20478;-80
2022/11/28 08:57:42;;;;;;;18.85;12.43;;;;;;;4.72;81.59;98488.22;5018775;28;20037;-80
2022/11/28 09:00:08;;;;;;;22.85;13.68;;;;;;;4.68;81.32;98474.63;5008003;28;20034;-81
2022/11/28 09:02:33;;;;;;;24.08;13.18;;;;;;;4.20;82.16;98502.72;5024586;28;21632;-80
2022/11/28 09:04:58;;;;;;;20.35;12.95;;;;;;;4.44;82.69;98510.66;5003568;28;20025;-80
2022/11/28 09:07:24;;;;;;;25.42;13.27;;;;;;;4.87;82.01;98515.09;5029294;28;20025;-81
2022/11/28 09:09:49;;;;;;;22.40;12.57;;;;;;;4.90;81.24;98490.84;5024257;28;20044;-80
2022/11/28 09:12:15;;;;;;;20.27;12.02;;;;;;;4.61;82.63;98494.25;5027299;28;20029;-81
2022/11/28 09:14:41;;;;;;;21.95;12.75;;;;;;;4.80;81.55;98507.25;4994312;28;20057;-80
2022/11/28 09:17:06;;;;;;;15.55;10.68;;;;;;;4.89;81.60;98519.13;5010292;28;20029;-80
2022/11/28 09:19:31;;;;;;;23.77;14.82;;;;;;;4.55;81.33;98495.91;5029585;28;20033;-80
2022/11/28 09:21:57;;;;;;;19.23;11.40;;;;;;;4.65;82.66;98503.34;5014475;28;20401;-80
2022/11/28 09:24:22;;;;;;;21.75;12.82;;;;;;;4.56;82.47;98505.47;5006259;28;20096;-80
2022/11/28 09:26:47;;;;;;;23.20;13.48;;;;;;;4.73;82.31;98506.50;5007394;28;20041;-80
2022/11/28 09:29:13;;;;;;;18.30;11.57;;;;;;;4.96;82.20;98509.28;5023457;28;20262;-80
2022/11/28 09:31:38;;;;;;;25.25;13.48;;;;;;;4.97;82.15;98523.31;5016880;28;20025;-81
2022/11/28 09:34:04;;;;;;;25.23;14.55;;;;;;;4.77;82.30;98520.09;5010101;28;20033;-80
2022/11/28 09:36:31;;;;;;;25.33;15.18;;;;;;;4.74;81.92;98489.59;5022349;28;20044;-81
2022/11/28 09:38:59;;;;;;;28.13;16.20;;;;;;;4.73;81.62;98513.63;5022053;28;20041;-80
2022/11/28 09:41:27;;;;;;;17.25;12.20;;;;;;;5.05;81.88;98523.84;5011285;28;20033;-80
2022/11/28 09:43:58;;;;;;;19.30;12.90;;;;;;;4.75;82.38;98490.41;5028757;28;20033;-80
2022/11/28 09:46:31;;;;;;;21.58;12.40;;;;;;;4.93;83.13;98511.56;5024014;28;20413;-81
2022/11/28 09:49:01;;;;;;;22.90;12.82;;;;;;;4.89;81.97;98492.69;5012308;28;20039;-81
2022/11/28 09:51:31;;;;;;;18.80;11.65;;;;;;;5.23;81.59;98507.16;5010046;28;20029;-80
2022/11/28 09:54:03;;;;;;;21.80;13.10;;;;;;;5.08;81.56;98496.97;5023107;28;20017;-80
2022/11/28 09:56:29;;;;;;;21.58;12.43;;;;;;;5.07;80.98;98478.66;5026220;28;20037;-80
2022/11/28 09:58:57;;;;;;;19.35;12.75;;;;;;;4.83;81.75;98492.75;5025990;28;20091;-80
2022/11/28 10:01:49;;;;;;;18.10;12.32;;;;;;;5.07;81.88;98499.81;5023013;28;20531;-80
2022/11/28 10:04:25;;;;;;;21.70;13.50;;;;;;;5.07;81.68;98497.16;5018820;28;20040;-80
2022/11/28 10:06:53;;;;;;;19.52;12.02;;;;;;;5.19;81.50;98492.75;5018969;28;20044;-81
2022/11/28 10:09:31;;;;;;;28.17;14.98;;;;;;;5.16;80.82;98488.72;5030162;28;20404;-80
2022/11/28 10:12:32;;;;;;;22.55;14.25;;;;;;;4.92;81.43;98494.09;5025642;28;20032;-81
2022/11/28 10:15:27;;;;;;;24.30;12.23;;;;;;;5.21;80.89;98496.78;5020851;28;20481;-81
2022/11/28 10:18:34;;;;;;;23.65;14.15;;;;;;;5.22;81.75;98492.31;5022648;28;20036;-81
2022/11/28 10:21:24;;;;;;;20.45;13.45;;;;;;;5.31;81.33;98491.78;5025851;28;20071;-81
2022/11/28 10:23:53;;;;;;;24.17;14.00;;;;;;;4.92;81.56;98473.75;5023527;28;20114;-81
2022/11/28 10:26:30;;;;;;;25.08;15.75;;;;;;;4.73;81.29;98473.97;5023127;28;20029;-80
2022/11/28 10:28:58;;;;;;;23.63;14.45;;;;;;;5.18;81.85;98476.06;5026845;28;20251;-80
2022/11/28 10:31:35;;;;;;;20.92;14.10;;;;;;;5.17;81.14;98478.94;5020975;28;20108;-81
2022/11/28 10:34:19;;;;;;;21.95;14.15;;;;;;;5.14;81.22;98468.78;5017576;28;20034;-80
2022/11/28 10:36:55;;;;;;;19.85;13.18;;;;;;;5.20;80.95;98481.13;5023301;28;20040;-80
2022/11/28 10:39:24;;;;;;;21.77;13.57;;;;;;;4.86;81.62;98444.75;5018130;28;20056;-80
2022/11/28 10:42:10;;;;;;;25.45;14.10;;;;;;;5.18;80.80;98456.72;5018438;28;20092;-81
2022/11/28 10:44:51;;;;;;;18.38;12.57;;;;;;;5.17;81.55;98457.78;5020080;28;20029;-80
2022/11/28 10:47:37;;;;;;;21.27;13.27;;;;;;;5.07;82.25;98457.47;5026629;28;20029;-80
2022/11/28 10:50:20;;;;;;;20.27;12.98;;;;;;;5.13;81.53;98444.19;5021734;28;20044;-80
2022/11/28 10:52:57;;;;;;;21.50;12.75;;;;;;;5.27;81.39;98455.41;5022253;28;20035;-81
2022/11/28 10:55:31;;;;;;;53.97;25.27;;;;;;;5.32;80.27;98460.84;5025813;28;20083;-80
2022/11/28 10:58:13;;;;;;;20.98;12.40;;;;;;;5.24;81.38;98443.41;5029716;28;20026;-81
2022/11/28 11:00:40;;;;;;;21.38;13.18;;;;;;;5.20;81.44;98458.13;5016349;28;20025;-81
2022/11/28 11:03:12;;;;;;;20.02;12.75;;;;;;;5.33;81.23;98454.50;4991345;28;20441;-80
2022/11/28 11:05:37;;;;;;;21.45;14.25;;;;;;;5.30;81.60;98453.13;5022936;28;20048;-80
2022/11/28 11:08:23;;;;;;;22.27;13.15;;;;;;;5.28;80.12;98454.38;5019084;28;20037;-81
2022/11/28 11:11:12;;;;;;;24.38;14.30;;;;;;;5.29;81.34;98448.03;5018742;28;20024;-80
2022/11/28 11:14:02;;;;;;;22.58;13.63;;;;;;;5.32;80.89;98442.31;5022008;28;20068;-81
2022/11/28 11:16:48;;;;;;;22.30;14.80;;;;;;;5.19;80.30;98453.06;5020465;28;20033;-80
2022/11/28 11:19:24;;;;;;;24.70;14.18;;;;;;;5.12;81.32;98442.56;5017661;28;20402;-81
2022/11/28 11:22:18;;;;;;;23.10;14.38;;;;;;;5.01;81.28;98443.34;5015980;28;20036;-80
2022/11/28 11:25:03;;;;;;;24.42;11.93;;;;;;;5.03;81.69;98427.22;5025293;28;20547;-80
2022/11/28 11:27:29;;;;;;;21.58;13.50;;;;;;;5.27;80.61;98435.03;5020737;28;20029;-81
2022/11/28 11:29:54;;;;;;;21.98;12.60;;;;;;;5.37;80.45;98450.41;5025211;28;20026;-80
2022/11/28 11:32:26;;;;;;;23.33;12.45;;;;;;;5.33;80.54;98447.38;5023937;28;20030;-80
2022/11/28 11:34:54;;;;;;;22.30;12.73;;;;;;;5.27;81.88;98458.03;5020184;28;20041;-81
2022/11/28 11:37:33;;;;;;;25.17;14.43;;;;;;;5.17;81.26;98436.63;5020334;28;20041;-80
2022/11/28 11:40:00;;;;;;;20.15;11.15;;;;;;;5.20;81.36;98436.97;5016960;28;20032;-80
2022/11/28 11:42:28;;;;;;;22.80;12.90;;;;;;;5.17;81.26;98437.44;5019726;28;20076;-80